createdAt,value
2023-05-17T00:02:21.038Z,12.02
2023-05-17T00:05:08.136Z,12.00
2023-05-17T00:07:55.224Z,11.74
2023-05-17T00:10:42.240Z,11.90
2023-05-17T00:13:29.405Z,11.84
2023-05-17T00:16:16.453Z,11.76
2023-05-17T00:19:03.637Z,11.73
2023-05-17T00:21:50.848Z,11.69
2023-05-17T00:24:38.091Z,11.64
2023-05-17T00:27:25.618Z,11.56
2023-05-17T00:30:12.660Z,11.53
2023-05-17T00:32:59.992Z,11.48
2023-05-17T00:35:47.390Z,11.42
2023-05-17T00:38:34.477Z,11.37
2023-05-17T00:41:21.844Z,11.32
2023-05-17T00:44:08.782Z,11.30
2023-05-17T00:46:55.857Z,11.26
2023-05-17T00:49:43.454Z,11.21
2023-05-17T00:52:30.693Z,11.15
2023-05-17T00:55:18.000Z,11.10
2023-05-17T00:58:05.268Z,11.03
2023-05-17T01:00:52.421Z,11.04
2023-05-17T01:03:39.551Z,11.01
2023-05-17T01:06:26.783Z,10.99
2023-05-17T01:09:13.969Z,10.96
2023-05-17T01:12:03.900Z,10.92
2023-05-17T01:14:54.176Z,10.90
2023-05-17T01:17:52.185Z,10.88
2023-05-17T01:20:39.394Z,10.86
2023-05-17T01:23:51.791Z,10.84
2023-05-17T01:26:49.176Z,10.84
2023-05-17T01:29:37.158Z,10.57
2023-05-17T01:32:26.459Z,10.77
2023-05-17T01:35:13.444Z,10.74
2023-05-17T01:38:00.592Z,10.73
2023-05-17T01:40:48.446Z,10.68
2023-05-17T01:43:51.384Z,10.46
2023-05-17T01:46:44.299Z,10.70
2023-05-17T01:49:35.638Z,10.64
2023-05-17T01:52:28.988Z,10.66
2023-05-17T01:55:26.917Z,10.63
2023-05-17T01:58:16.289Z,10.61
2023-05-17T02:01:06.744Z,10.58
2023-05-17T02:03:53.741Z,10.44
2023-05-17T02:06:40.946Z,10.58
2023-05-17T02:09:28.248Z,10.57
2023-05-17T02:12:15.216Z,10.57
2023-05-17T02:15:02.195Z,10.54
2023-05-17T02:17:49.432Z,10.46
2023-05-17T02:20:36.645Z,10.33
2023-05-17T02:23:23.579Z,10.49
2023-05-17T02:26:13.158Z,10.48
2023-05-17T02:29:00.200Z,10.46
2023-05-17T02:31:47.367Z,10.27
2023-05-17T02:34:34.365Z,10.44
2023-05-17T02:37:21.537Z,10.42
2023-05-17T02:40:08.706Z,10.44
2023-05-17T02:42:56.651Z,10.45
2023-05-17T02:45:43.783Z,10.46
2023-05-17T02:48:33.136Z,10.43
2023-05-17T02:51:20.257Z,10.48
2023-05-17T02:54:07.511Z,10.47
2023-05-17T02:56:54.822Z,10.44
2023-05-17T02:59:42.118Z,10.48
2023-05-17T03:02:29.283Z,10.27
2023-05-17T03:05:16.394Z,10.48
2023-05-17T03:08:08.461Z,10.48
2023-05-17T03:10:55.446Z,10.44
2023-05-17T03:13:42.576Z,10.44
2023-05-17T03:16:31.953Z,10.42
2023-05-17T03:19:20.464Z,10.39
2023-05-17T03:22:07.585Z,10.33
2023-05-17T03:24:54.777Z,10.29
2023-05-17T03:27:42.575Z,10.19
2023-05-17T03:30:30.022Z,10.28
2023-05-17T03:33:19.313Z,10.28
2023-05-17T03:36:06.534Z,10.24
2023-05-17T03:38:53.526Z,10.25
2023-05-17T03:41:40.748Z,10.19
2023-05-17T03:44:27.913Z,10.14
2023-05-17T03:47:15.058Z,10.09
2023-05-17T03:50:02.877Z,10.05
2023-05-17T03:52:51.042Z,9.98
2023-05-17T03:55:38.869Z,9.99
2023-05-17T03:58:27.338Z,9.92
2023-05-17T04:01:14.443Z,9.90
2023-05-17T04:04:01.680Z,9.89
2023-05-17T04:06:48.825Z,9.87
2023-05-17T04:09:36.418Z,9.66
2023-05-17T04:12:23.687Z,9.85
2023-05-17T04:15:10.777Z,9.83
2023-05-17T04:18:00.021Z,9.81
2023-05-17T04:20:47.350Z,9.79
2023-05-17T04:23:34.516Z,9.77
2023-05-17T04:26:22.951Z,9.56
2023-05-17T04:29:10.411Z,9.75
2023-05-17T04:31:57.417Z,9.75
2023-05-17T04:34:44.707Z,9.40
2023-05-17T04:37:31.634Z,9.63
2023-05-17T04:40:24.241Z,9.70
2023-05-17T04:43:11.656Z,9.56
2023-05-17T04:45:59.031Z,9.70
2023-05-17T04:48:46.876Z,9.70
2023-05-17T04:51:34.473Z,9.63
2023-05-17T04:54:22.267Z,9.69
2023-05-17T04:57:10.786Z,9.71
2023-05-17T05:00:10.044Z,9.72
2023-05-17T05:02:59.642Z,9.73
2023-05-17T05:05:46.890Z,9.72
2023-05-17T05:08:35.802Z,9.71
2023-05-17T05:11:24.505Z,9.76
2023-05-17T05:14:11.790Z,9.63
2023-05-17T05:16:58.919Z,9.74
2023-05-17T05:19:46.352Z,9.74
2023-05-17T05:22:33.509Z,9.71
2023-05-17T05:25:20.811Z,9.75
2023-05-17T05:28:07.758Z,9.76
2023-05-17T05:30:58.306Z,9.61
2023-05-17T05:33:45.994Z,9.75
2023-05-17T05:36:33.384Z,9.67
2023-05-17T05:39:22.702Z,9.75
2023-05-17T05:42:10.582Z,9.74
2023-05-17T05:44:57.846Z,9.66
2023-05-17T05:47:46.461Z,9.76
2023-05-17T05:50:33.473Z,9.53
2023-05-17T05:53:25.394Z,9.80
2023-05-17T05:56:14.957Z,9.80
2023-05-17T05:59:02.199Z,9.66
2023-05-17T06:01:52.112Z,9.82
2023-05-17T06:04:45.300Z,9.81
2023-05-17T06:07:33.800Z,9.49
2023-05-17T06:10:20.982Z,9.82
2023-05-17T06:13:07.891Z,9.82
2023-05-17T06:15:56.251Z,9.82
2023-05-17T06:18:43.318Z,9.83
2023-05-17T06:21:30.620Z,9.70
2023-05-17T06:24:17.766Z,9.62
2023-05-17T06:27:04.775Z,9.63
2023-05-17T06:29:51.893Z,9.81
2023-05-17T06:32:39.750Z,9.68
2023-05-17T06:35:27.728Z,9.82
2023-05-17T06:38:15.157Z,9.80
2023-05-17T06:41:02.111Z,9.70
2023-05-17T06:43:49.384Z,9.78
2023-05-17T06:46:36.411Z,9.67
2023-05-17T06:49:23.468Z,9.78
2023-05-17T06:52:10.399Z,9.77
2023-05-17T06:54:57.598Z,9.77
2023-05-17T06:57:44.515Z,9.76
2023-05-17T07:00:32.611Z,9.71
2023-05-17T07:03:20.232Z,9.70
2023-05-17T07:06:07.363Z,9.64
2023-05-17T07:08:54.508Z,9.56
2023-05-17T07:11:41.444Z,9.57
2023-05-17T07:14:28.557Z,9.60
2023-05-17T07:17:15.620Z,9.57
2023-05-17T07:20:02.963Z,9.49
2023-05-17T07:22:49.979Z,9.49
2023-05-17T07:25:37.084Z,9.56
2023-05-17T07:28:25.110Z,9.53
2023-05-17T07:31:12.155Z,9.51
2023-05-17T07:33:59.323Z,9.55
2023-05-17T07:36:46.396Z,9.51
2023-05-17T07:39:33.338Z,9.55
2023-05-17T07:42:20.299Z,9.32
2023-05-17T07:45:07.235Z,9.54
2023-05-17T07:47:54.256Z,9.51
2023-05-17T07:50:41.340Z,9.48
2023-05-17T07:53:28.236Z,9.16
2023-05-17T07:56:15.168Z,9.55
2023-05-17T07:59:02.344Z,9.55
2023-05-17T08:01:49.361Z,9.55
2023-05-17T08:04:36.611Z,9.32
2023-05-17T08:07:23.719Z,9.59
2023-05-17T08:10:10.743Z,9.59
2023-05-17T08:12:57.855Z,9.37
2023-05-17T08:15:44.841Z,9.62
2023-05-17T08:18:31.969Z,9.63
2023-05-17T08:21:19.079Z,9.64
2023-05-17T08:24:06.592Z,9.68
2023-05-17T08:26:54.074Z,9.70
2023-05-17T08:29:41.093Z,9.73
2023-05-17T08:32:28.161Z,9.73
2023-05-17T08:35:15.357Z,9.76
2023-05-17T08:38:02.336Z,9.78
2023-05-17T08:40:49.715Z,9.81
2023-05-17T08:43:37.272Z,9.82
2023-05-17T08:46:24.300Z,9.45
2023-05-17T08:49:13.331Z,9.84
2023-05-17T08:52:00.921Z,9.81
2023-05-17T08:54:48.145Z,9.87
2023-05-17T08:57:36.961Z,9.88
2023-05-17T09:00:24.980Z,9.89
2023-05-17T09:03:12.074Z,9.90
2023-05-17T09:05:59.282Z,9.91
2023-05-17T09:08:46.517Z,9.92
2023-05-17T09:11:46.366Z,9.92
2023-05-17T09:14:39.348Z,9.94
2023-05-17T09:17:26.358Z,9.95
2023-05-17T09:20:13.511Z,9.96
2023-05-17T09:23:00.846Z,9.95
2023-05-17T09:25:49.961Z,9.95
2023-05-17T09:28:39.363Z,9.83
2023-05-17T09:31:27.554Z,9.93
2023-05-17T09:34:14.749Z,9.97
2023-05-17T09:37:04.833Z,9.96
2023-05-17T09:39:52.542Z,10.00
2023-05-17T09:42:39.531Z,9.96
2023-05-17T09:45:27.157Z,9.98
2023-05-17T09:48:14.553Z,9.57
2023-05-17T09:51:11.461Z,9.73
2023-05-17T09:54:01.131Z,9.95
2023-05-17T09:56:49.895Z,9.91
2023-05-17T09:59:36.989Z,9.90
2023-05-17T10:02:33.383Z,9.87
2023-05-17T10:05:24.653Z,9.87
2023-05-17T10:08:14.443Z,9.78
2023-05-17T10:11:02.200Z,9.95
2023-05-17T10:13:54.714Z,9.76
2023-05-17T10:16:42.608Z,9.93
2023-05-17T10:19:31.807Z,9.99
2023-05-17T10:22:23.458Z,9.61
2023-05-17T10:25:11.854Z,10.11
2023-05-17T10:27:59.222Z,10.06
2023-05-17T10:30:48.793Z,10.10
2023-05-17T10:33:36.133Z,10.09
2023-05-17T10:36:25.016Z,10.08
2023-05-17T10:39:13.078Z,10.03
2023-05-17T10:42:14.160Z,10.03
2023-05-17T10:45:01.987Z,10.02
2023-05-17T10:47:53.351Z,10.00
2023-05-17T10:50:54.570Z,10.00
2023-05-17T10:53:48.582Z,9.91
2023-05-17T10:56:35.561Z,9.96
2023-05-17T10:59:35.549Z,10.01
2023-05-17T11:02:23.897Z,10.02
2023-05-17T11:05:14.204Z,9.79
2023-05-17T11:08:01.447Z,9.81
2023-05-17T11:10:48.446Z,10.04
2023-05-17T11:13:46.195Z,10.11
2023-05-17T11:16:36.595Z,10.09
2023-05-17T11:19:31.760Z,10.14
2023-05-17T11:22:19.432Z,10.01
2023-05-17T11:25:11.438Z,10.09
2023-05-17T11:28:12.207Z,10.22
2023-05-17T11:31:02.583Z,10.20
2023-05-17T11:34:04.304Z,10.27
2023-05-17T11:36:52.197Z,10.21
2023-05-17T11:39:44.381Z,10.37
2023-05-17T11:42:44.585Z,10.41
2023-05-17T11:45:31.652Z,10.42
2023-05-17T11:48:18.990Z,10.44
2023-05-17T11:51:09.230Z,10.47
2023-05-17T11:53:56.367Z,10.33
2023-05-17T11:56:44.276Z,10.39
2023-05-17T11:59:31.281Z,10.46
2023-05-17T12:02:18.372Z,10.45
2023-05-17T12:05:05.443Z,10.29
2023-05-17T12:07:54.319Z,10.19
2023-05-17T12:10:41.390Z,10.46
2023-05-17T12:13:29.637Z,10.50
2023-05-17T12:16:19.784Z,10.53
2023-05-17T12:19:11.851Z,10.57
2023-05-17T12:21:59.043Z,10.56
2023-05-17T12:24:57.498Z,10.45
2023-05-17T12:27:47.430Z,10.62
2023-05-17T12:30:35.553Z,10.46
2023-05-17T12:33:22.615Z,10.67
2023-05-17T12:36:10.417Z,10.38
2023-05-17T12:39:00.636Z,10.70
2023-05-17T12:41:48.365Z,10.70
2023-05-17T12:44:35.483Z,10.73
2023-05-17T12:47:22.873Z,10.73
2023-05-17T12:50:15.966Z,10.70
2023-05-17T12:53:03.065Z,10.74
2023-05-17T12:55:56.971Z,10.51
2023-05-17T12:58:32.207Z,10.76
2023-05-17T13:01:21.103Z,10.68
2023-05-17T13:04:11.569Z,10.76
2023-05-17T13:07:16.722Z,10.60
2023-05-17T13:10:08.001Z,10.58
2023-05-17T13:12:55.010Z,10.79
2023-05-17T13:15:48.107Z,10.80
2023-05-17T13:18:38.548Z,10.79
2023-05-17T13:21:25.607Z,10.72
2023-05-17T13:24:12.677Z,10.83
2023-05-17T13:26:59.818Z,10.82
2023-05-17T13:29:46.839Z,10.82
2023-05-17T13:32:34.350Z,10.79
2023-05-17T13:35:21.457Z,10.76
2023-05-17T13:38:08.642Z,10.78
2023-05-17T13:40:55.665Z,10.73
2023-05-17T13:43:42.973Z,10.59
2023-05-17T13:46:29.987Z,10.36
2023-05-17T13:49:17.441Z,10.63
2023-05-17T13:52:04.566Z,10.61
2023-05-17T13:54:51.702Z,10.57
2023-05-17T13:57:38.737Z,10.50
2023-05-17T14:00:26.634Z,10.34
2023-05-17T14:03:13.719Z,10.34
2023-05-17T14:06:00.938Z,10.34
2023-05-17T14:08:47.880Z,9.81
2023-05-17T14:11:35.046Z,10.29
2023-05-17T14:14:22.090Z,10.11
2023-05-17T14:17:09.120Z,10.17
